• Join FlightAware (Why Join?)
  • Login
  • US Flag 
04:48AM EDT


 

Airport Tracker/Info


-or-


 

Live Flight TrackerFlight Track Log ✈ N360FE ✈ 05-Apr-2013 ✈ TJBQ / BQN - TJBQ / BQN

Flight Track Log - Related Links

Times and Time Zones

All times are in EDT time to prevent confusion due to time zone crossing. See the N360FE flight status page for this flight to view local times or setup timezone preferences in your user account.

Time Position Orientation Groundspeed Altitude Reporting Facility
EDT Latitude Longitude Course Direction KTS MPH feet Rate Location/Type
09:07PM 18.5333 -67.0833 353° North 210 242 1,800  Level San Juan Center
09:08PM 18.6000 -67.1167 335° Northwest 270 311 3,900 1,740 Climbing San Juan Center
09:09PM 18.6667 -67.1500 335° Northwest 280 322 5,400 1,500 Climbing San Juan Center
09:10PM 18.7333 -67.1833 335° Northwest 290 334 7,000 1,620 Climbing San Juan Center
09:11PM 18.8000 -67.2167 335° Northwest 300 345 8,700 1,440 Climbing San Juan Center
09:12PM 19.1573 -67.2143 353° North  Level FlightAware Approximate
09:12PM 18.9000 -67.2500 342° North 310 357 10,000  Level San Juan Center
09:13PM 18.9667 -67.2833 335° Northwest 290 334 10,000  Level San Juan Center
09:14PM 19.0500 -67.3167 339° North 280 322 10,000  Level San Juan Center
09:15PM 19.1167 -67.3500 335° Northwest 260 299 10,000  Level San Juan Center
09:16PM 19.1667 -67.3833 336° Northwest 240 276 10,000  Level San Juan Center
09:17PM 19.2333 -67.4000 339° North 250 288 10,000  Level San Juan Center
09:18PM 19.3000 -67.4333 337° Northwest 250 288 10,000  Level San Juan Center
09:19PM 19.3833 -67.4500 337° Northwest 310 357 10,000 -60 Level San Juan Center
09:20PM 19.4710 -67.5050 335° Northwest 250 288 9,900 -60 Descending FlightAware
09:21PM 19.4990 -67.5170 338° Northwest 248 285 9,900  Level FlightAware
09:21PM 19.5220 -67.5280 336° Northwest 248 285 9,900  Level FlightAware
09:22PM 19.5490 -67.5400 337° Northwest 248 285 9,900  Level FlightAware
09:22PM 19.5760 -67.5510 339° North 247 284 9,900  Level FlightAware
09:23PM 19.6110 -67.5660 338° Northwest 247 284 9,900  Level FlightAware
09:23PM 19.6380 -67.5780 337° Northwest 247 284 9,900  Level FlightAware
09:23PM 19.6470 -67.5820 337° Northwest 247 284 9,900  Level FlightAware
09:24PM 19.6740 -67.5940 337° Northwest 247 284 9,900 120 Level FlightAware
09:24PM 19.6833 -67.6000 337° Northwest 250 288 10,000 60 Climbing San Juan Center
09:25PM 19.7500 -67.6333 335° Northwest 240 276 10,000  Level San Juan Center
09:26PM 19.8167 -67.6500 347° North 250 288 10,000  Level San Juan Center
09:27PM 19.8833 -67.6833 335° Northwest 250 288 10,000  Level San Juan Center
09:28PM 19.9500 -67.7167 335° Northwest 250 288 10,000  Level San Juan Center
09:29PM 20.0167 -67.7333 347° North 250 288 10,000  Level San Juan Center
09:30PM 20.0667 -67.7667 328° Northwest 250 288 10,000  Level San Juan Center
09:31PM 20.1333 -67.8000 335° Northwest 240 276 10,000  Level San Juan Center
09:32PM 20.2000 -67.8167 347° North 250 288 10,000  Level San Juan Center
09:33PM 20.2667 -67.8500 335° Northwest 240 276 10,000  Level San Juan Center
09:41PM 20.7833 -68.0833 337° Northwest 250 288 10,000  Level San Juan Center
09:42PM 20.7500 -68.1500 242° Southwest 150 173 10,000  Level San Juan Center
09:43PM 20.7000 -68.1333 163° South 240 276 10,000  Level San Juan Center
09:44PM 20.6333 -68.1000 155° Southeast 230 265 10,000  Level San Juan Center
09:45PM 20.5667 -68.0833 167° South 230 265 10,000  Level San Juan Center
09:46PM 20.5000 -68.0500 155° Southeast 230 265 10,000  Level San Juan Center
09:47PM 20.4500 -68.0333 163° South 230 265 10,000  Level San Juan Center
09:48PM 20.3833 -68.0167 167° South 240 276 10,000  Level San Juan Center
09:49PM 20.3167 -67.9833 155° Southeast 240 276 10,000  Level San Juan Center
09:50PM 20.2500 -67.9667 167° South 240 276 10,000  Level San Juan Center
09:51PM 20.2000 -67.9333 148° Southeast 240 276 10,000  Level San Juan Center
09:52PM 20.1333 -67.9167 167° South 230 265 10,000  Level San Juan Center
09:53PM 20.0667 -67.9000 167° South 230 265 10,000  Level San Juan Center
09:54PM 20.0000 -67.8667 167° South 230 265 10,000  Level San Juan Center
09:55PM 19.9500 -67.8500 161° South 240 276 10,000  Level San Juan Center
09:56PM 19.8833 -67.8333 163° South 240 276 10,000  Level San Juan Center
09:57PM 19.8167 -67.8000 160° South 240 276 10,000  Level San Juan Center
09:58PM 19.7667 -67.7833 162° South 230 265 10,000 -60 Level San Juan Center
09:59PM 19.6920 -67.7610 167° South 236 272 9,900 -120 Descending FlightAware
10:00PM 19.6720 -67.7540 162° South 236 272 9,900  Level FlightAware
10:00PM 19.6310 -67.7390 161° South 234 269 9,900  Level FlightAware
10:01PM 19.6070 -67.7300 161° South 234 269 9,900  Level FlightAware
10:01PM 19.5820 -67.7220 163° South 234 269 9,900  Level FlightAware
10:02PM 19.5560 -67.7120 160° South 234 269 9,900  Level FlightAware
10:02PM 19.5300 -67.7020 160° South 234 269 9,900  Level FlightAware
10:03PM 19.5040 -67.6930 162° South 234 269 9,900 60 Level FlightAware
10:03PM 19.4500 -67.6667 162° South 240 276 10,000 60 Climbing San Juan Center
10:04PM 19.3833 -67.6500 167° South 240 276 10,000  Level San Juan Center
10:05PM 19.3167 -67.6333 167° South 230 265 10,000  Level San Juan Center
10:06PM 19.2667 -67.6000 148° Southeast 230 265 10,000  Level San Juan Center
10:07PM 19.2000 -67.5833 167° South 230 265 10,000  Level San Juan Center
10:08PM 19.1333 -67.5667 167° South 230 265 10,000  Level San Juan Center
10:09PM 19.0833 -67.5333 148° Southeast 230 265 10,000  Level San Juan Center
10:10PM 19.0167 -67.5167 167° South 240 276 10,000  Level San Juan Center